createdAt,value
2018-07-31T00:00:26.892Z,1009.58
2018-07-31T00:01:35.547Z,1009.58
2018-07-31T00:02:44.202Z,1009.58
2018-07-31T00:03:53.381Z,1009.57
2018-07-31T00:05:02.022Z,1009.59
2018-07-31T00:06:10.675Z,1009.56
2018-07-31T00:07:19.325Z,1009.54
2018-07-31T00:08:28.023Z,1009.55
2018-07-31T00:09:36.624Z,1009.52
2018-07-31T00:10:45.278Z,1009.52
2018-07-31T00:11:53.924Z,1009.52
2018-07-31T00:13:02.589Z,1009.5
2018-07-31T00:14:11.223Z,1009.55
2018-07-31T00:15:20.140Z,1009.55
2018-07-31T00:16:29.051Z,1009.5
2018-07-31T00:17:37.710Z,1009.51
2018-07-31T00:18:46.359Z,1009.53
2018-07-31T00:19:55.005Z,1009.54
2018-07-31T00:21:03.654Z,1009.54
2018-07-31T00:22:12.300Z,1009.54
2018-07-31T00:23:20.961Z,1009.54
2018-07-31T00:24:29.606Z,1009.56
2018-07-31T00:25:38.268Z,1009.53
2018-07-31T00:26:46.906Z,1009.55
2018-07-31T00:27:55.571Z,1009.58
2018-07-31T00:29:04.481Z,1009.51
2018-07-31T00:30:13.137Z,1009.5
2018-07-31T00:31:21.782Z,1009.49
2018-07-31T00:32:30.439Z,1009.51
2018-07-31T00:33:39.088Z,1009.57
2018-07-31T00:34:47.739Z,1009.57
2018-07-31T00:35:56.643Z,1009.49
2018-07-31T00:37:05.292Z,1009.51
2018-07-31T00:38:13.947Z,1009.49
2018-07-31T00:39:22.599Z,1009.55
2018-07-31T00:40:31.253Z,1009.52
2018-07-31T00:41:39.891Z,1009.5
2018-07-31T00:42:48.549Z,1009.49
2018-07-31T00:43:57.190Z,1009.49
2018-07-31T00:45:05.855Z,1009.49
2018-07-31T00:46:14.757Z,1009.5
2018-07-31T00:47:23.413Z,1009.49
2018-07-31T00:48:32.329Z,1009.5
2018-07-31T00:49:40.987Z,1009.49
2018-07-31T00:50:49.633Z,1009.48
2018-07-31T00:51:58.286Z,1009.46
2018-07-31T00:53:07.198Z,1009.47
2018-07-31T00:54:15.859Z,1009.46
2018-07-31T00:55:24.501Z,1009.46
2018-07-31T00:56:33.415Z,1009.48
2018-07-31T00:57:42.062Z,1009.48
2018-07-31T00:58:50.710Z,1009.47
2018-07-31T00:59:59.364Z,1009.44
2018-07-31T01:01:08.008Z,1009.47
2018-07-31T01:02:16.658Z,1009.44
2018-07-31T01:03:25.832Z,1009.41
2018-07-31T01:04:34.488Z,1009.42
2018-07-31T01:05:43.137Z,1009.39
2018-07-31T01:06:51.791Z,1009.42
2018-07-31T01:08:00.437Z,1009.42
2018-07-31T01:09:09.089Z,1009.44
2018-07-31T01:10:17.735Z,1009.42
2018-07-31T01:11:26.389Z,1009.41
2018-07-31T01:12:35.033Z,1009.41
2018-07-31T01:13:43.685Z,1009.43
2018-07-31T01:14:52.599Z,1009.44
2018-07-31T01:16:01.255Z,1009.44
2018-07-31T01:17:09.909Z,1009.4
2018-07-31T01:18:18.555Z,1009.41
2018-07-31T01:19:27.207Z,1009.39
2018-07-31T01:20:35.856Z,1009.41
2018-07-31T01:21:44.512Z,1009.41
2018-07-31T01:22:53.161Z,1009.4
2018-07-31T01:24:01.813Z,1009.42
2018-07-31T01:25:10.988Z,1009.43
2018-07-31T01:26:19.643Z,1009.41
2018-07-31T01:27:28.285Z,1009.39
2018-07-31T01:28:36.937Z,1009.41
2018-07-31T01:29:45.587Z,1009.4
2018-07-31T01:30:54.241Z,1009.39
2018-07-31T01:32:02.890Z,1009.42
2018-07-31T01:33:11.805Z,1009.38
2018-07-31T01:34:20.718Z,1009.42
2018-07-31T01:35:29.366Z,1009.43
2018-07-31T01:36:38.021Z,1009.42
2018-07-31T01:37:46.670Z,1009.45
2018-07-31T01:38:55.320Z,1009.41
2018-07-31T01:40:04.226Z,1009.48
2018-07-31T01:41:12.884Z,1009.5
2018-07-31T01:42:21.791Z,1009.49
2018-07-31T01:43:30.442Z,1009.45
2018-07-31T01:44:39.881Z,1009.46
2018-07-31T01:45:48.617Z,1009.47
2018-07-31T01:46:57.178Z,1009.45
2018-07-31T01:48:06.361Z,1009.43
2018-07-31T01:49:14.999Z,1009.42
2018-07-31T01:50:23.652Z,1009.43
2018-07-31T01:51:32.308Z,1009.43
2018-07-31T01:52:40.959Z,1009.44
2018-07-31T01:53:49.609Z,1009.41
2018-07-31T01:54:58.250Z,1009.39
2018-07-31T01:56:07.173Z,1009.35
2018-07-31T01:57:15.818Z,1009.37
2018-07-31T01:58:24.476Z,1009.35
2018-07-31T01:59:33.122Z,1009.36
2018-07-31T02:00:41.773Z,1009.33
2018-07-31T02:01:50.425Z,1009.34
2018-07-31T02:02:59.087Z,1009.32
2018-07-31T02:04:07.724Z,1009.32
2018-07-31T02:05:16.377Z,1009.29
2018-07-31T02:06:25.023Z,1009.31
2018-07-31T02:07:33.989Z,1009.25
2018-07-31T02:08:42.595Z,1009.21
2018-07-31T02:09:51.245Z,1009.23
2018-07-31T02:10:59.892Z,1009.28
2018-07-31T02:12:08.799Z,1009.3
2018-07-31T02:13:17.458Z,1009.26
2018-07-31T02:14:26.103Z,1009.26
2018-07-31T02:15:35.019Z,1009.28
2018-07-31T02:16:43.660Z,1009.28
2018-07-31T02:17:52.321Z,1009.3
2018-07-31T02:19:00.964Z,1009.29
2018-07-31T02:20:09.619Z,1009.26
2018-07-31T02:21:18.259Z,1009.26
2018-07-31T02:22:27.185Z,1009.27
2018-07-31T02:23:35.831Z,1009.25
2018-07-31T02:24:44.484Z,1009.25
2018-07-31T02:25:53.383Z,1009.26
2018-07-31T02:27:02.036Z,1009.27
2018-07-31T02:28:11.015Z,1009.26
2018-07-31T02:29:19.982Z,1009.26
2018-07-31T02:30:28.631Z,1009.25
2018-07-31T02:31:37.272Z,1009.3
2018-07-31T02:32:45.930Z,1009.24
2018-07-31T02:33:54.849Z,1009.27
2018-07-31T02:35:03.769Z,1009.26
2018-07-31T02:36:12.939Z,1009.23
2018-07-31T02:37:21.862Z,1009.24
2018-07-31T02:38:30.777Z,1009.25
2018-07-31T02:39:39.441Z,1009.25
2018-07-31T02:40:48.616Z,1009.27
2018-07-31T02:41:57.273Z,1009.24
2018-07-31T02:43:06.182Z,1009.23
2018-07-31T02:44:14.846Z,1009.28
2018-07-31T02:45:23.767Z,1009.26
2018-07-31T02:46:32.674Z,1009.24
2018-07-31T02:47:41.326Z,1009.28
2018-07-31T02:48:49.978Z,1009.24
2018-07-31T02:49:58.639Z,1009.29
2018-07-31T02:51:07.289Z,1009.25
2018-07-31T02:52:15.943Z,1009.24
2018-07-31T02:53:24.589Z,1009.23
2018-07-31T02:54:33.248Z,1009.22
2018-07-31T02:55:41.897Z,1009.22
2018-07-31T02:56:50.550Z,1009.25
2018-07-31T02:57:59.477Z,1009.26
2018-07-31T02:59:08.402Z,1009.25
2018-07-31T03:00:17.056Z,1009.25
2018-07-31T03:01:25.709Z,1009.27
2018-07-31T03:02:34.357Z,1009.24
2018-07-31T03:03:43.013Z,1009.28
2018-07-31T03:04:51.661Z,1009.29
2018-07-31T03:06:00.319Z,1009.28
2018-07-31T03:07:09.245Z,1009.28
2018-07-31T03:08:18.030Z,1009.31
2018-07-31T03:09:26.540Z,1009.27
2018-07-31T03:10:35.196Z,1009.26
2018-07-31T03:11:43.856Z,1009.26
2018-07-31T03:12:52.511Z,1009.28
2018-07-31T03:14:01.158Z,1009.26
2018-07-31T03:15:09.810Z,1009.26
2018-07-31T03:16:18.473Z,1009.27
2018-07-31T03:17:27.393Z,1009.26
2018-07-31T03:18:36.309Z,1009.27
2018-07-31T03:19:44.958Z,1009.25
2018-07-31T03:20:53.613Z,1009.3
2018-07-31T03:22:02.265Z,1009.29
2018-07-31T03:23:11.177Z,1009.31
2018-07-31T03:24:20.093Z,1009.35
2018-07-31T03:25:29.004Z,1009.37
2018-07-31T03:26:37.989Z,1009.39
2018-07-31T03:27:46.641Z,1009.42
2018-07-31T03:28:55.556Z,1009.41
2018-07-31T03:30:04.208Z,1009.42
2018-07-31T03:31:13.396Z,1009.43
2018-07-31T03:32:22.060Z,1009.48
2018-07-31T03:33:30.705Z,1009.5
2018-07-31T03:34:39.349Z,1009.5
2018-07-31T03:35:48.002Z,1009.5
2018-07-31T03:36:56.647Z,1009.5
2018-07-31T03:38:05.562Z,1009.51
2018-07-31T03:39:14.734Z,1009.49
2018-07-31T03:40:23.651Z,1009.5
2018-07-31T03:41:32.300Z,1009.52
2018-07-31T03:42:40.949Z,1009.53
2018-07-31T03:43:49.601Z,1009.57
2018-07-31T03:44:58.511Z,1009.56
2018-07-31T03:46:07.162Z,1009.55
2018-07-31T03:47:15.812Z,1009.51
2018-07-31T03:48:24.455Z,1009.52
2018-07-31T03:49:33.109Z,1009.5
2018-07-31T03:50:41.759Z,1009.49
2018-07-31T03:51:50.407Z,1009.52
2018-07-31T03:52:59.052Z,1009.51
2018-07-31T03:54:08.238Z,1009.5
2018-07-31T03:55:16.885Z,1009.51
2018-07-31T03:56:25.565Z,1009.51
2018-07-31T03:57:34.523Z,1009.54
2018-07-31T03:58:43.174Z,1009.57
2018-07-31T03:59:51.825Z,1009.6
2018-07-31T04:01:00.477Z,1009.62
2018-07-31T04:02:09.129Z,1009.66
2018-07-31T04:03:17.771Z,1009.67
2018-07-31T04:04:26.685Z,1009.71
2018-07-31T04:05:35.693Z,1009.72
2018-07-31T04:06:44.319Z,1009.72
2018-07-31T04:07:52.966Z,1009.71
2018-07-31T04:09:01.616Z,1009.71
2018-07-31T04:10:10.265Z,1009.72
2018-07-31T04:11:18.920Z,1009.71
2018-07-31T04:12:27.562Z,1009.72
2018-07-31T04:13:36.215Z,1009.74
2018-07-31T04:14:44.862Z,1009.72
2018-07-31T04:15:53.515Z,1009.7
2018-07-31T04:17:02.207Z,1009.7
2018-07-31T04:18:10.815Z,1009.7
2018-07-31T04:19:19.460Z,1009.69
2018-07-31T04:20:28.107Z,1009.72
2018-07-31T04:21:36.761Z,1009.73
2018-07-31T04:22:45.409Z,1009.75
2018-07-31T04:23:54.057Z,1009.73
2018-07-31T04:25:02.701Z,1009.71
2018-07-31T04:26:11.619Z,1009.74
2018-07-31T04:27:20.267Z,1009.74
2018-07-31T04:28:28.918Z,1009.73
2018-07-31T04:29:37.560Z,1009.78
2018-07-31T04:30:46.214Z,1009.79
2018-07-31T04:31:54.860Z,1009.78
2018-07-31T04:33:03.511Z,1009.72
2018-07-31T04:34:12.158Z,1009.77
2018-07-31T04:35:20.809Z,1009.77
2018-07-31T04:36:29.458Z,1009.74
2018-07-31T04:37:38.108Z,1009.75
2018-07-31T04:38:46.758Z,1009.77
2018-07-31T04:39:55.403Z,1009.79
2018-07-31T04:41:04.317Z,1009.79
2018-07-31T04:42:13.327Z,1009.8
2018-07-31T04:43:21.954Z,1009.8
2018-07-31T04:44:30.596Z,1009.81
2018-07-31T04:45:39.249Z,1009.83
2018-07-31T04:46:47.895Z,1009.86
2018-07-31T04:47:56.551Z,1009.88
2018-07-31T04:49:05.455Z,1009.89
2018-07-31T04:50:14.130Z,1009.93
2018-07-31T04:51:22.759Z,1009.94
2018-07-31T04:52:31.679Z,1009.96
2018-07-31T04:53:40.325Z,1009.95
2018-07-31T04:54:48.972Z,1009.94
2018-07-31T04:55:57.886Z,1009.92
2018-07-31T04:57:06.788Z,1009.91
2018-07-31T04:58:15.450Z,1009.89
2018-07-31T04:59:24.089Z,1009.85
2018-07-31T05:00:32.749Z,1009.81
2018-07-31T05:01:41.648Z,1009.76
2018-07-31T05:02:50.315Z,1009.77
2018-07-31T05:03:58.951Z,1009.73
2018-07-31T05:05:07.606Z,1009.7
2018-07-31T05:06:16.249Z,1009.77
2018-07-31T05:07:25.169Z,1009.8
2018-07-31T05:08:33.815Z,1009.81
2018-07-31T05:09:42.463Z,1009.87
2018-07-31T05:10:51.367Z,1009.91
2018-07-31T05:12:00.350Z,1009.9
2018-07-31T05:13:09.002Z,1009.9
2018-07-31T05:14:17.922Z,1009.92
2018-07-31T05:15:26.578Z,1009.94
2018-07-31T05:16:35.218Z,1009.95
2018-07-31T05:17:43.876Z,1009.93
2018-07-31T05:18:52.520Z,1009.92
2018-07-31T05:20:01.177Z,1009.94
2018-07-31T05:21:09.816Z,1009.97
2018-07-31T05:22:18.471Z,1009.97
2018-07-31T05:23:27.116Z,1009.96
2018-07-31T05:24:35.774Z,1009.99
2018-07-31T05:25:44.416Z,1009.97
2018-07-31T05:26:53.067Z,1010.02
2018-07-31T05:28:01.718Z,1010.01
2018-07-31T05:29:10.381Z,1010.03
2018-07-31T05:30:19.024Z,1010.02
2018-07-31T05:31:27.669Z,1009.97
2018-07-31T05:32:36.404Z,1009.95
2018-07-31T05:33:44.964Z,1010.03
2018-07-31T05:34:53.622Z,1010.04
2018-07-31T05:36:02.268Z,1010.04
2018-07-31T05:37:10.924Z,1009.99
2018-07-31T05:38:19.564Z,1010.03
2018-07-31T05:39:28.240Z,1010.03
2018-07-31T05:40:37.135Z,1010.01
2018-07-31T05:41:45.791Z,1010.03
2018-07-31T05:42:54.433Z,1010.03
2018-07-31T05:44:03.092Z,1010.03
2018-07-31T05:45:11.740Z,1010.01
2018-07-31T05:46:20.395Z,1010.04
2018-07-31T05:47:29.036Z,1010.06
2018-07-31T05:48:37.961Z,1010.05
2018-07-31T05:49:46.879Z,1010.06
2018-07-31T05:50:55.532Z,1010.08
2018-07-31T05:52:04.184Z,1010.06
2018-07-31T05:53:12.826Z,1010.06
2018-07-31T05:54:21.479Z,1010.06
2018-07-31T05:55:30.129Z,1010.08
2018-07-31T05:56:38.790Z,1010.06
2018-07-31T05:57:47.436Z,1010.06
2018-07-31T05:58:56.090Z,1010.09
2018-07-31T06:00:05.000Z,1010.1
2018-07-31T06:01:13.661Z,1010.09
2018-07-31T06:02:22.303Z,1010.17
2018-07-31T06:03:31.003Z,1010.17
2018-07-31T06:04:39.600Z,1010.19
2018-07-31T06:05:48.532Z,1010.19
2018-07-31T06:06:57.180Z,1010.19
2018-07-31T06:08:05.828Z,1010.18
2018-07-31T06:09:14.477Z,1010.22
2018-07-31T06:10:23.129Z,1010.26
2018-07-31T06:11:31.789Z,1010.3
2018-07-31T06:12:40.435Z,1010.3
2018-07-31T06:13:49.090Z,1010.28
2018-07-31T06:14:57.732Z,1010.28
2018-07-31T06:16:06.397Z,1010.31
2018-07-31T06:17:15.305Z,1010.32
2018-07-31T06:18:23.965Z,1010.35
2018-07-31T06:19:32.604Z,1010.37
2018-07-31T06:20:41.268Z,1010.41
2018-07-31T06:21:50.185Z,1010.39
2018-07-31T06:22:59.097Z,1010.36
2018-07-31T06:24:07.999Z,1010.35
2018-07-31T06:25:16.916Z,1010.35
2018-07-31T06:26:25.571Z,1010.35
2018-07-31T06:27:34.225Z,1010.36
2018-07-31T06:28:42.878Z,1010.39
2018-07-31T06:29:51.521Z,1010.38
2018-07-31T06:31:00.448Z,1010.37
2018-07-31T06:32:09.092Z,1010.41
2018-07-31T06:33:17.752Z,1010.42
2018-07-31T06:34:26.388Z,1010.4
2018-07-31T06:35:35.313Z,1010.42
2018-07-31T06:36:44.221Z,1010.45
2018-07-31T06:37:53.149Z,1010.46
2018-07-31T06:39:01.789Z,1010.47
2018-07-31T06:40:10.442Z,1010.47
2018-07-31T06:41:19.091Z,1010.49
2018-07-31T06:42:27.747Z,1010.48
2018-07-31T06:43:36.436Z,1010.46
2018-07-31T06:44:45.043Z,1010.51
2018-07-31T06:45:53.694Z,1010.51
2018-07-31T06:47:02.338Z,1010.5
2018-07-31T06:48:10.993Z,1010.53
2018-07-31T06:49:19.730Z,1010.51
2018-07-31T06:50:28.295Z,1010.56
2018-07-31T06:51:36.941Z,1010.53
2018-07-31T06:52:45.860Z,1010.54
2018-07-31T06:53:54.514Z,1010.55
2018-07-31T06:55:03.427Z,1010.57
2018-07-31T06:56:12.073Z,1010.58
2018-07-31T06:57:20.729Z,1010.54
2018-07-31T06:58:29.377Z,1010.55
2018-07-31T06:59:38.030Z,1010.53
2018-07-31T07:00:46.676Z,1010.51
2018-07-31T07:01:55.336Z,1010.52
2018-07-31T07:03:04.250Z,1010.56
2018-07-31T07:04:12.908Z,1010.55
2018-07-31T07:05:21.821Z,1010.53
2018-07-31T07:06:30.736Z,1010.55
2018-07-31T07:07:39.386Z,1010.56
2018-07-31T07:08:48.038Z,1010.58
2018-07-31T07:09:56.695Z,1010.61
2018-07-31T07:11:05.336Z,1010.59
2018-07-31T07:12:13.988Z,1010.56
2018-07-31T07:13:22.641Z,1010.56
2018-07-31T07:14:31.562Z,1010.55
2018-07-31T07:15:40.472Z,1010.54
2018-07-31T07:16:49.129Z,1010.55
2018-07-31T07:17:57.775Z,1010.58
2018-07-31T07:19:06.431Z,1010.59
2018-07-31T07:20:15.081Z,1010.61
2018-07-31T07:21:23.734Z,1010.59
2018-07-31T07:22:32.665Z,1010.59
2018-07-31T07:23:41.620Z,1010.56
2018-07-31T07:24:50.277Z,1010.59
2018-07-31T07:25:59.195Z,1010.55
2018-07-31T07:27:08.117Z,1010.58
2018-07-31T07:28:17.036Z,1010.58
2018-07-31T07:29:25.691Z,1010.58
2018-07-31T07:30:34.344Z,1010.59
2018-07-31T07:31:42.995Z,1010.6
2018-07-31T07:32:51.907Z,1010.65
2018-07-31T07:34:00.644Z,1010.66
2018-07-31T07:35:09.220Z,1010.66
2018-07-31T07:36:18.146Z,1010.68
2018-07-31T07:37:27.065Z,1010.67
2018-07-31T07:38:35.984Z,1010.65
2018-07-31T07:39:44.637Z,1010.66
2018-07-31T07:40:53.291Z,1010.64
2018-07-31T07:42:02.255Z,1010.64
2018-07-31T07:43:10.871Z,1010.65
2018-07-31T07:44:19.524Z,1010.64
2018-07-31T07:45:28.437Z,1010.62
2018-07-31T07:46:37.085Z,1010.64
2018-07-31T07:47:45.743Z,1010.6
2018-07-31T07:48:54.663Z,1010.58
2018-07-31T07:50:03.320Z,1010.56
2018-07-31T07:51:12.229Z,1010.57
2018-07-31T07:52:20.886Z,1010.53
2018-07-31T07:53:29.540Z,1010.5
2018-07-31T07:54:38.204Z,1010.51
2018-07-31T07:55:46.846Z,1010.48
2018-07-31T07:56:55.511Z,1010.5
2018-07-31T07:58:04.163Z,1010.46
2018-07-31T07:59:12.819Z,1010.46
2018-07-31T08:00:21.474Z,1010.49
2018-07-31T08:01:30.121Z,1010.48
2018-07-31T08:02:38.773Z,1010.44
2018-07-31T08:03:47.520Z,1010.47
2018-07-31T08:04:56.097Z,1010.44
2018-07-31T08:06:04.742Z,1010.46
2018-07-31T08:07:13.667Z,1010.46
2018-07-31T08:08:22.314Z,1010.42
2018-07-31T08:09:30.972Z,1010.45
2018-07-31T08:10:39.622Z,1010.48
2018-07-31T08:11:48.278Z,1010.44
2018-07-31T08:12:56.927Z,1010.48
2018-07-31T08:14:05.846Z,1010.44
2018-07-31T08:15:15.029Z,1010.48
2018-07-31T08:16:23.683Z,1010.51
2018-07-31T08:17:32.336Z,1010.51
2018-07-31T08:18:40.988Z,1010.53
2018-07-31T08:19:49.913Z,1010.53
2018-07-31T08:20:58.566Z,1010.52
2018-07-31T08:22:07.487Z,1010.53
2018-07-31T08:23:16.137Z,1010.56
2018-07-31T08:24:24.795Z,1010.55
2018-07-31T08:25:33.462Z,1010.57
2018-07-31T08:26:42.103Z,1010.61
2018-07-31T08:27:50.839Z,1010.6
2018-07-31T08:28:59.414Z,1010.6
2018-07-31T08:30:08.333Z,1010.6
2018-07-31T08:31:17.249Z,1010.65
2018-07-31T08:32:25.897Z,1010.7
2018-07-31T08:33:34.878Z,1010.67
2018-07-31T08:34:43.471Z,1010.64
2018-07-31T08:35:52.126Z,1010.69
2018-07-31T08:37:00.781Z,1010.67
2018-07-31T08:38:09.430Z,1010.66
2018-07-31T08:39:18.088Z,1010.65
2018-07-31T08:40:26.739Z,1010.65
2018-07-31T08:41:35.404Z,1010.64
2018-07-31T08:42:44.046Z,1010.63
2018-07-31T08:43:52.705Z,1010.63
2018-07-31T08:45:01.352Z,1010.61
2018-07-31T08:46:10.018Z,1010.66
2018-07-31T08:47:18.921Z,1010.65
2018-07-31T08:48:27.854Z,1010.68
2018-07-31T08:49:36.763Z,1010.66
2018-07-31T08:50:45.428Z,1010.71
2018-07-31T08:51:54.077Z,1010.71
2018-07-31T08:53:02.728Z,1010.67
2018-07-31T08:54:11.379Z,1010.66
2018-07-31T08:55:20.031Z,1010.65
2018-07-31T08:56:28.693Z,1010.67
2018-07-31T08:57:37.343Z,1010.63
2018-07-31T08:58:46.008Z,1010.64
2018-07-31T08:59:55.177Z,1010.63
2018-07-31T09:01:03.840Z,1010.64
2018-07-31T09:02:12.490Z,1010.64
2018-07-31T09:03:21.148Z,1010.61
2018-07-31T09:04:30.066Z,1010.6
2018-07-31T09:05:39.010Z,1010.6
2018-07-31T09:06:47.665Z,1010.62
2018-07-31T09:07:56.323Z,1010.65
2018-07-31T09:09:04.967Z,1010.66
2018-07-31T09:10:13.625Z,1010.65
2018-07-31T09:11:22.284Z,1010.67
2018-07-31T09:12:30.942Z,1010.66
2018-07-31T09:13:39.599Z,1010.64
2018-07-31T09:14:48.249Z,1010.66
2018-07-31T09:15:56.905Z,1010.69
2018-07-31T09:17:05.818Z,1010.65
2018-07-31T09:18:14.742Z,1010.68
2018-07-31T09:19:23.389Z,1010.69
2018-07-31T09:20:32.317Z,1010.69
2018-07-31T09:21:40.975Z,1010.7
2018-07-31T09:22:49.633Z,1010.69
2018-07-31T09:23:58.280Z,1010.72
2018-07-31T09:25:06.935Z,1010.75
2018-07-31T09:26:15.588Z,1010.75
2018-07-31T09:27:24.251Z,1010.78
2018-07-31T09:28:32.904Z,1010.77
2018-07-31T09:29:41.820Z,1010.78
2018-07-31T09:30:50.573Z,1010.79
2018-07-31T09:31:59.504Z,1010.78
2018-07-31T09:33:08.176Z,1010.79
2018-07-31T09:34:16.830Z,1010.82
2018-07-31T09:35:25.535Z,1010.85
2018-07-31T09:36:34.169Z,1010.82
2018-07-31T09:37:42.793Z,1010.75
2018-07-31T09:38:51.448Z,1010.74
2018-07-31T09:40:00.106Z,1010.72
2018-07-31T09:41:08.750Z,1010.71
2018-07-31T09:42:17.409Z,1010.68
2018-07-31T09:43:26.068Z,1010.68
2018-07-31T09:44:34.723Z,1010.69
2018-07-31T09:45:43.374Z,1010.73
2018-07-31T09:46:52.032Z,1010.72
2018-07-31T09:48:00.696Z,1010.66
2018-07-31T09:49:09.346Z,1010.69
2018-07-31T09:50:18.007Z,1010.67
2018-07-31T09:51:26.923Z,1010.68
2018-07-31T09:52:35.579Z,1010.69
2018-07-31T09:53:44.236Z,1010.7
2018-07-31T09:54:52.899Z,1010.72
2018-07-31T09:56:01.562Z,1010.78
2018-07-31T09:57:10.260Z,1010.76
2018-07-31T09:58:18.873Z,1010.67
2018-07-31T09:59:27.535Z,1010.68
2018-07-31T10:00:36.454Z,1010.62
2018-07-31T10:01:45.112Z,1010.63
2018-07-31T10:02:54.030Z,1010.69
2018-07-31T10:04:02.962Z,1010.68
2018-07-31T10:05:11.712Z,1010.72
2018-07-31T10:06:20.270Z,1010.8
2018-07-31T10:07:28.923Z,1010.75
2018-07-31T10:08:37.577Z,1010.78
2018-07-31T10:09:46.243Z,1010.74
2018-07-31T10:10:55.433Z,1010.68
2018-07-31T10:12:04.102Z,1010.72
2018-07-31T10:13:12.740Z,1010.71
2018-07-31T10:14:21.406Z,1010.67
2018-07-31T10:15:30.062Z,1010.65
2018-07-31T10:16:38.726Z,1010.64
2018-07-31T10:17:47.507Z,1010.63
2018-07-31T10:18:56.040Z,1010.6
2018-07-31T10:20:04.694Z,1010.67
2018-07-31T10:21:13.353Z,1010.69
2018-07-31T10:22:22.011Z,1010.73
2018-07-31T10:23:30.926Z,1010.71
2018-07-31T10:24:39.593Z,1010.72
2018-07-31T10:25:48.241Z,1010.73
2018-07-31T10:26:56.899Z,1010.7
2018-07-31T10:28:05.548Z,1010.73
2018-07-31T10:29:14.205Z,1010.76
2018-07-31T10:30:23.123Z,1010.76
2018-07-31T10:31:31.787Z,1010.73
2018-07-31T10:32:40.439Z,1010.73
2018-07-31T10:33:49.094Z,1010.74
2018-07-31T10:34:57.749Z,1010.8
2018-07-31T10:36:06.412Z,1010.81
2018-07-31T10:37:15.059Z,1010.8
2018-07-31T10:38:24.033Z,1010.77
2018-07-31T10:39:32.956Z,1010.79
2018-07-31T10:40:41.623Z,1010.78
2018-07-31T10:41:50.277Z,1010.72
2018-07-31T10:42:58.930Z,1010.73
2018-07-31T10:44:07.618Z,1010.74
2018-07-31T10:45:16.240Z,1010.74
2018-07-31T10:46:24.906Z,1010.79
2018-07-31T10:47:33.556Z,1010.8
2018-07-31T10:48:42.222Z,1010.88
2018-07-31T10:49:51.131Z,1010.85
2018-07-31T10:50:59.832Z,1010.87
2018-07-31T10:52:08.750Z,1010.87
2018-07-31T10:53:17.671Z,1010.89
2018-07-31T10:54:26.319Z,1010.91
2018-07-31T10:55:34.983Z,1010.94
2018-07-31T10:56:43.637Z,1010.96
2018-07-31T10:57:52.295Z,1010.94
2018-07-31T10:59:01.271Z,1010.96
2018-07-31T11:00:09.976Z,1010.96
2018-07-31T11:01:18.935Z,1010.93
2018-07-31T11:02:27.594Z,1010.94
2018-07-31T11:03:36.252Z,1010.95
2018-07-31T11:04:44.899Z,1010.89
2018-07-31T11:05:53.563Z,1010.92
2018-07-31T11:07:02.219Z,1010.92
2018-07-31T11:08:10.885Z,1010.91
2018-07-31T11:09:19.533Z,1010.96
2018-07-31T11:10:28.267Z,1010.99
2018-07-31T11:11:36.854Z,1011
2018-07-31T11:12:45.520Z,1010.93
2018-07-31T11:13:54.171Z,1011.02
2018-07-31T11:15:02.828Z,1010.97
2018-07-31T11:16:11.482Z,1011
2018-07-31T11:17:20.147Z,1011.04
2018-07-31T11:18:28.800Z,1010.89
2018-07-31T11:19:37.456Z,1011.02
2018-07-31T11:20:46.117Z,1011.03
2018-07-31T11:21:54.771Z,1010.97
2018-07-31T11:23:03.437Z,1011
2018-07-31T11:24:12.351Z,1011.01
2018-07-31T11:25:21.009Z,1010.99
2018-07-31T11:26:29.654Z,1010.95
2018-07-31T11:27:38.325Z,1011.01
2018-07-31T11:28:46.980Z,1010.94
2018-07-31T11:29:55.690Z,1010.97
2018-07-31T11:31:04.620Z,1011
2018-07-31T11:32:13.279Z,1010.94
2018-07-31T11:33:21.933Z,1010.95
2018-07-31T11:34:30.588Z,1010.93
2018-07-31T11:35:39.513Z,1010.93
2018-07-31T11:36:48.170Z,1010.96
2018-07-31T11:37:56.822Z,1010.97
2018-07-31T11:39:05.478Z,1010.99
2018-07-31T11:40:14.132Z,1010.92
2018-07-31T11:41:22.797Z,1010.94
2018-07-31T11:42:31.447Z,1010.87
2018-07-31T11:43:40.109Z,1010.89
2018-07-31T11:44:49.020Z,1010.9
2018-07-31T11:45:57.688Z,1010.82
2018-07-31T11:47:06.343Z,1010.83
2018-07-31T11:48:15.005Z,1010.82
2018-07-31T11:49:23.649Z,1010.77
2018-07-31T11:50:32.313Z,1010.81
2018-07-31T11:51:40.991Z,1010.88
2018-07-31T11:52:49.636Z,1010.83
2018-07-31T11:53:58.283Z,1010.83
2018-07-31T11:55:06.943Z,1010.84
2018-07-31T11:56:15.606Z,1010.8
2018-07-31T11:57:24.271Z,1010.84
2018-07-31T11:58:33.719Z,1010.79
2018-07-31T11:59:42.626Z,1010.78
2018-07-31T12:00:51.288Z,1010.74
2018-07-31T12:01:59.941Z,1010.75
2018-07-31T12:03:08.875Z,1010.83
2018-07-31T12:04:17.552Z,1010.77
2018-07-31T12:05:26.189Z,1010.74
2018-07-31T12:06:35.364Z,1010.82
2018-07-31T12:07:44.324Z,1010.78
2018-07-31T12:08:53.253Z,1010.71
2018-07-31T12:10:01.996Z,1010.74
2018-07-31T12:11:10.569Z,1010.7
2018-07-31T12:12:19.237Z,1010.7
2018-07-31T12:13:27.893Z,1010.73
2018-07-31T12:14:36.547Z,1010.75
2018-07-31T12:15:45.199Z,1010.74
2018-07-31T12:16:54.135Z,1010.74
2018-07-31T12:18:02.802Z,1010.71
2018-07-31T12:19:11.458Z,1010.81
2018-07-31T12:20:20.118Z,1010.75
2018-07-31T12:21:28.770Z,1010.75
2018-07-31T12:22:37.434Z,1010.78
2018-07-31T12:23:46.145Z,1010.71
2018-07-31T12:24:55.024Z,1010.72
2018-07-31T12:26:03.668Z,1010.72
2018-07-31T12:27:12.334Z,1010.73
2018-07-31T12:28:20.993Z,1010.79
2018-07-31T12:29:29.656Z,1010.83
2018-07-31T12:30:38.302Z,1010.87
2018-07-31T12:31:46.963Z,1010.95
2018-07-31T12:32:56.173Z,1010.87
2018-07-31T12:34:05.580Z,1010.87
2018-07-31T12:35:14.240Z,1010.85
2018-07-31T12:36:22.896Z,1010.89
2018-07-31T12:37:32.076Z,1010.92
2018-07-31T12:38:40.733Z,1010.89
2018-07-31T12:39:49.394Z,1010.89
2018-07-31T12:40:58.047Z,1010.84
2018-07-31T12:42:06.703Z,1010.85
2018-07-31T12:43:15.360Z,1010.89
2018-07-31T12:44:24.018Z,1010.92
2018-07-31T12:45:32.938Z,1010.93
2018-07-31T12:46:41.593Z,1010.97
2018-07-31T12:47:50.250Z,1011.02
2018-07-31T12:48:58.907Z,1010.99
2018-07-31T12:50:07.569Z,1010.97
2018-07-31T12:51:16.219Z,1011.03
2018-07-31T12:52:24.873Z,1010.98
2018-07-31T12:53:33.527Z,1010.97
2018-07-31T12:54:42.191Z,1010.91
2018-07-31T12:55:51.110Z,1010.92
2018-07-31T12:56:59.762Z,1010.9
2018-07-31T12:58:08.417Z,1010.89
2018-07-31T12:59:17.078Z,1010.88
2018-07-31T13:00:25.735Z,1010.93
2018-07-31T13:01:34.657Z,1010.9
2018-07-31T13:02:43.310Z,1010.87
2018-07-31T13:03:51.973Z,1010.92
2018-07-31T13:05:00.904Z,1010.95
2018-07-31T13:06:09.560Z,1010.93
2018-07-31T13:07:18.218Z,1010.97
2018-07-31T13:08:26.881Z,1010.97
2018-07-31T13:09:35.535Z,1010.94
2018-07-31T13:10:44.198Z,1010.93
2018-07-31T13:11:52.856Z,1010.9
2018-07-31T13:13:01.509Z,1010.91
2018-07-31T13:14:10.496Z,1010.87
2018-07-31T13:15:19.155Z,1010.96
2018-07-31T13:16:27.817Z,1010.96
2018-07-31T13:17:36.470Z,1011.04
2018-07-31T13:18:45.126Z,1011
2018-07-31T13:19:54.053Z,1010.99
2018-07-31T13:21:02.984Z,1010.99
2018-07-31T13:22:11.902Z,1010.96
2018-07-31T13:23:20.559Z,1010.96
2018-07-31T13:24:29.217Z,1010.95
2018-07-31T13:25:37.879Z,1010.95
2018-07-31T13:26:46.796Z,1010.9
2018-07-31T13:27:55.454Z,1010.95
2018-07-31T13:29:04.106Z,1010.94
2018-07-31T13:30:12.759Z,1010.88
2018-07-31T13:31:21.429Z,1010.9
2018-07-31T13:32:30.344Z,1010.95
2018-07-31T13:33:38.997Z,1010.96
2018-07-31T13:34:47.662Z,1010.99
2018-07-31T13:35:56.307Z,1011.01
2018-07-31T13:37:04.986Z,1011.09
2018-07-31T13:38:13.904Z,1011.07
2018-07-31T13:39:22.570Z,1011.05
2018-07-31T13:40:31.222Z,1011.09
2018-07-31T13:41:39.880Z,1011.07
2018-07-31T13:42:49.067Z,1011.12
2018-07-31T13:43:57.887Z,1011.17
2018-07-31T13:45:06.388Z,1011.15
2018-07-31T13:46:15.040Z,1011.14
2018-07-31T13:47:23.698Z,1011.2
2018-07-31T13:48:32.348Z,1011.18
2018-07-31T13:49:41.014Z,1011.19
2018-07-31T13:50:49.667Z,1011.2
2018-07-31T13:51:58.330Z,1011.16
2018-07-31T13:53:06.975Z,1011.25
2018-07-31T13:54:15.642Z,1011.25